Time;durP1;ratioP1;P1;durP2;ratioP2;P2;SDS_P1;SDS_P2;PMS_P1;PMS_P2;Temp;Humidity;BMP_temperature;BMP_pressure;BME280_temperature;BME280_humidity;BME280_pressure;Samples;Min_cycle;Max_cycle;Signal;HPM_P1;HPM_P2
2023/03/31 00:00:20;;;;;;;40.60;6.05;;;9.70;99.90;;;;;;5118835;27;20034;-72
2023/03/31 00:02:45;;;;;;;38.38;7.40;;;9.60;99.90;;;;;;5121413;27;20039;-72
2023/03/31 00:05:16;;;;;;;43.10;6.35;;;9.50;99.90;;;;;;5121696;27;20032;-72
2023/03/31 00:07:44;;;;;;;36.08;7.38;;;9.50;99.90;;;;;;5126415;27;20043;-72
2023/03/31 00:10:10;;;;;;;48.15;8.45;;;9.50;99.90;;;;;;5125155;27;20054;-72
2023/03/31 00:12:36;;;;;;;44.88;8.07;;;9.50;99.90;;;;;;5133521;27;20039;-72
2023/03/31 00:15:01;;;;;;;37.80;6.32;;;9.50;99.90;;;;;;5122893;27;20400;-72
2023/03/31 00:17:27;;;;;;;33.63;6.60;;;9.60;99.90;;;;;;5125342;27;20035;-72
2023/03/31 00:19:58;;;;;;;49.20;6.18;;;9.70;99.90;;;;;;5129145;27;20110;-72
2023/03/31 00:22:26;;;;;;;42.20;6.63;;;9.80;99.90;;;;;;5131938;27;20035;-72
2023/03/31 00:24:52;;;;;;;37.80;5.20;;;9.70;99.90;;;;;;5128579;27;20043;-72
2023/03/31 00:27:17;;;;;;;39.78;6.28;;;9.70;99.90;;;;;;5124805;27;20031;-72
2023/03/31 00:29:44;;;;;;;44.97;7.00;;;9.70;99.90;;;;;;5128984;27;20039;-72
2023/03/31 00:32:10;;;;;;;41.58;6.13;;;9.70;99.90;;;;;;5120218;27;20046;-72
2023/03/31 00:34:36;;;;;;;34.95;6.95;;;9.80;99.90;;;;;;5097646;27;20039;-73
2023/03/31 00:37:02;;;;;;;38.40;5.88;;;9.60;99.90;;;;;;5126713;27;20043;-72
2023/03/31 00:39:32;;;;;;;36.97;6.30;;;9.60;99.90;;;;;;5122425;27;20398;-72
2023/03/31 00:42:00;;;;;;;42.45;6.38;;;9.50;99.90;;;;;;5119207;27;20031;-72
2023/03/31 00:44:28;;;;;;;;;;;9.50;99.90;;;;;;5103183;27;20047;-71
2023/03/31 00:47:17;;;;;;;30.52;5.85;;;9.50;99.90;;;;;;5117975;27;19964;-73
2023/03/31 00:49:47;;;;;;;32.88;6.18;;;9.50;99.90;;;;;;5131245;27;20484;-72
2023/03/31 00:52:22;;;;;;;41.70;5.78;;;9.40;99.90;;;;;;5118698;27;20048;-72
2023/03/31 00:54:54;;;;;;;47.38;7.28;;;9.40;99.90;;;;;;5122892;27;20035;-71
2023/03/31 00:57:22;;;;;;;39.83;5.65;;;9.40;99.90;;;;;;5129188;27;20031;-72
2023/03/31 00:59:56;;;;;;;48.55;7.70;;;9.50;99.90;;;;;;5134652;27;20043;-72
2023/03/31 01:02:24;;;;;;;38.00;7.05;;;9.40;99.90;;;;;;5121998;27;20039;-71
2023/03/31 01:04:56;;;;;;;;;;;9.40;99.90;;;;;;5120305;27;20047;-72
2023/03/31 01:07:37;;;;;;;33.08;6.00;;;9.40;99.90;;;;;;5120269;27;20387;-72
2023/03/31 01:10:04;;;;;;;35.45;6.22;;;9.30;99.90;;;;;;5133542;27;20070;-71
2023/03/31 01:12:32;;;;;;;33.80;5.68;;;9.30;99.90;;;;;;5123108;27;20517;-71
2023/03/31 01:14:59;;;;;;;32.13;5.50;;;9.40;99.90;;;;;;5131646;27;20075;-71
2023/03/31 01:17:28;;;;;;;40.42;5.70;;;9.20;99.90;;;;;;5125329;27;20050;-71
2023/03/31 01:20:33;;;;;;;28.58;6.03;;;9.30;99.90;;;;;;5120375;27;20082;-72
2023/03/31 01:23:20;;;;;;;37.10;6.55;;;9.20;99.90;;;;;;5121455;27;20039;-72
2023/03/31 01:26:00;;;;;;;45.30;7.72;;;9.20;99.90;;;;;;5127223;27;20406;-72
2023/03/31 01:28:28;;;;;;;38.95;6.82;;;9.10;99.90;;;;;;5116368;27;20109;-72
2023/03/31 01:31:15;;;;;;;44.20;6.75;;;9.10;99.90;;;;;;5119975;27;20069;-72
2023/03/31 01:34:19;;;;;;;27.20;5.95;;;9.10;99.90;;;;;;5115578;27;20071;-72
2023/03/31 01:37:13;;;;;;;31.38;6.40;;;9.10;99.90;;;;;;5133780;27;20043;-72
2023/03/31 01:39:58;;;;;;;29.83;5.28;;;9.10;99.90;;;;;;5095572;28;20035;-72
2023/03/31 01:42:50;;;;;;;34.08;5.15;;;9.10;99.90;;;;;;5114451;27;20044;-72
2023/03/31 01:45:32;;;;;;;31.00;6.40;;;9.00;99.90;;;;;;5118684;27;20432;-72
2023/03/31 01:48:07;;;;;;;26.92;5.57;;;9.00;99.90;;;;;;5114365;27;20043;-72
2023/03/31 01:51:00;;;;;;;31.90;5.43;;;9.00;99.90;;;;;;5116312;27;20044;-72
2023/03/31 01:54:06;;;;;;;32.90;5.30;;;9.00;99.90;;;;;;5125902;27;20091;-72
2023/03/31 01:56:38;;;;;;;24.00;5.35;;;9.00;99.90;;;;;;5119601;27;20119;-72
2023/03/31 01:59:16;;;;;;;32.65;5.97;;;8.90;99.90;;;;;;5109913;27;20430;-72
2023/03/31 02:01:50;;;;;;;40.42;5.47;;;8.90;99.90;;;;;;5131044;27;20049;-72
2023/03/31 02:04:23;;;;;;;30.30;5.50;;;8.90;99.90;;;;;;5119641;27;20454;-72
2023/03/31 02:07:18;;;;;;;29.08;6.47;;;8.90;99.90;;;;;;5127861;27;20042;-72
2023/03/31 02:09:49;;;;;;;43.47;5.80;;;8.90;99.90;;;;;;5116475;27;20056;-72
2023/03/31 02:12:18;;;;;;;29.25;5.60;;;8.90;99.90;;;;;;5125479;27;20036;-72
2023/03/31 02:14:45;;;;;;;;;;;8.90;99.90;;;;;;5122133;27;20077;-72
2023/03/31 02:17:17;;;;;;;31.30;4.93;;;8.90;99.90;;;;;;5125522;27;20385;-74
2023/03/31 02:19:47;;;;;;;24.90;4.68;;;8.90;99.90;;;;;;5126194;27;20036;-72
2023/03/31 02:22:15;;;;;;;32.55;5.05;;;8.90;99.90;;;;;;5125984;27;20047;-72
2023/03/31 02:24:42;;;;;;;;;;;8.90;99.90;;;;;;5130842;27;20046;-72
2023/03/31 02:27:19;;;;;;;24.58;5.25;;;8.90;99.90;;;;;;5134424;27;19926;-72
2023/03/31 02:29:45;;;;;;;29.67;5.43;;;8.90;99.90;;;;;;5116605;27;20043;-72
2023/03/31 02:32:15;;;;;;;33.20;5.60;;;8.90;99.90;;;;;;5113690;27;20035;-72
2023/03/31 02:34:40;;;;;;;33.95;6.22;;;8.90;99.90;;;;;;5108137;28;20549;-72
2023/03/31 02:37:07;;;;;;;34.17;5.13;;;8.90;99.90;;;;;;5124601;27;20068;-72
2023/03/31 02:39:35;;;;;;;34.15;6.38;;;8.80;99.90;;;;;;5130569;27;20053;-72
2023/03/31 02:42:05;;;;;;;32.90;6.57;;;8.90;99.90;;;;;;5129483;27;20388;-72
2023/03/31 02:44:38;;;;;;;32.55;6.00;;;8.90;99.90;;;;;;5124818;27;20463;-72
2023/03/31 02:47:11;;;;;;;32.88;5.50;;;8.90;99.90;;;;;;5126191;27;20113;-72
2023/03/31 02:49:41;;;;;;;32.83;5.40;;;8.90;99.90;;;;;;5126532;27;20047;-72
2023/03/31 02:52:28;;;;;;;27.52;5.03;;;9.00;99.90;;;;;;5120799;27;20070;-72
2023/03/31 02:55:18;;;;;;;36.28;5.72;;;9.00;99.90;;;;;;5125541;27;20047;-72
2023/03/31 02:58:12;;;;;;;27.17;4.47;;;9.00;99.90;;;;;;5120721;27;20035;-72
2023/03/31 03:00:51;;;;;;;28.65;5.20;;;9.10;99.90;;;;;;5119004;27;20081;-72
2023/03/31 03:03:26;;;;;;;28.23;5.57;;;9.10;99.90;;;;;;5121453;27;20045;-72
2023/03/31 03:05:57;;;;;;;36.53;6.43;;;9.10;99.90;;;;;;5116173;27;20479;-72
2023/03/31 03:08:49;;;;;;;29.40;5.18;;;9.10;99.90;;;;;;5112317;27;20500;-72
2023/03/31 03:11:45;;;;;;;29.20;4.65;;;9.20;99.90;;;;;;5118806;27;20051;-72
2023/03/31 03:14:36;;;;;;;29.55;5.22;;;9.20;99.90;;;;;;5060431;27;20486;-72
2023/03/31 03:17:10;;;;;;;28.05;5.45;;;9.20;99.90;;;;;;5114047;27;20111;-72
2023/03/31 03:19:36;;;;;;;26.77;4.97;;;9.20;99.90;;;;;;5120658;27;20047;-72
2023/03/31 03:22:02;;;;;;;31.90;5.40;;;9.20;99.90;;;;;;5127876;27;20119;-72
2023/03/31 03:24:29;;;;;;;21.20;4.22;;;9.10;99.90;;;;;;5130814;27;20034;-72
2023/03/31 03:26:55;;;;;;;20.42;4.60;;;9.10;99.90;;;;;;5127063;27;20062;-72
2023/03/31 03:29:21;;;;;;;25.40;4.90;;;9.10;99.90;;;;;;5124611;27;20143;-72
2023/03/31 03:31:47;;;;;;;24.55;4.38;;;9.20;99.90;;;;;;5112703;28;20075;-72
2023/03/31 03:34:12;;;;;;;23.92;4.53;;;9.50;99.90;;;;;;5113477;28;20035;-72
2023/03/31 03:36:39;;;;;;;23.30;4.60;;;9.10;99.90;;;;;;5124918;27;20043;-72
2023/03/31 03:39:06;;;;;;;27.05;4.78;;;9.20;99.90;;;;;;5133022;27;20039;-72
2023/03/31 03:41:32;;;;;;;32.95;5.65;;;9.10;99.90;;;;;;5114800;28;20104;-72
2023/03/31 03:43:59;;;;;;;34.47;5.97;;;9.10;99.90;;;;;;5112952;28;20039;-72
2023/03/31 03:46:25;;;;;;;24.30;4.78;;;9.20;99.90;;;;;;5094538;28;20035;-72
2023/03/31 03:48:50;;;;;;;22.25;5.22;;;9.10;99.90;;;;;;5112543;28;20080;-72
2023/03/31 03:51:16;;;;;;;20.77;4.38;;;9.20;99.90;;;;;;5118132;28;20043;-72
2023/03/31 03:53:42;;;;;;;23.83;4.68;;;9.10;99.90;;;;;;5113469;27;20480;-72
2023/03/31 03:56:07;;;;;;;22.85;4.20;;;9.20;99.90;;;;;;5119217;27;20059;-72
2023/03/31 03:58:33;;;;;;;21.95;4.65;;;9.20;99.90;;;;;;5100516;28;20035;-72
2023/03/31 04:00:59;;;;;;;24.15;4.57;;;9.20;99.90;;;;;;5130767;27;20070;-72
2023/03/31 04:03:24;;;;;;;20.70;4.20;;;9.20;99.90;;;;;;5120478;27;20397;-72
2023/03/31 04:05:50;;;;;;;23.40;4.25;;;9.20;99.90;;;;;;5127673;27;20069;-72
2023/03/31 04:08:17;;;;;;;22.80;5.93;;;9.20;99.90;;;;;;5106898;27;21961;-72
2023/03/31 04:10:48;;;;;;;16.02;3.80;;;9.30;99.90;;;;;;5120183;28;20038;-72
2023/03/31 04:13:15;;;;;;;25.15;5.32;;;9.30;99.90;;;;;;5122119;28;20167;-72
2023/03/31 04:15:41;;;;;;;20.35;4.70;;;9.50;99.90;;;;;;5119673;27;20104;-71
2023/03/31 04:18:09;;;;;;;19.88;5.10;;;9.30;99.90;;;;;;5125996;27;20395;-71
2023/03/31 04:20:36;;;;;;;14.55;4.88;;;9.40;99.90;;;;;;5116518;27;20793;-71
2023/03/31 04:23:04;;;;;;;16.42;5.00;;;9.40;99.90;;;;;;5123668;27;20081;-71
2023/03/31 04:25:30;;;;;;;15.75;4.65;;;9.30;99.90;;;;;;5124218;27;20479;-71
2023/03/31 04:27:56;;;;;;;20.95;5.53;;;9.40;99.90;;;;;;5119000;27;20122;-72
2023/03/31 04:30:24;;;;;;;22.13;5.57;;;9.40;99.90;;;;;;5109280;28;20150;-72
2023/03/31 04:33:07;;;;;;;18.70;6.00;;;9.40;99.90;;;;;;5118903;27;20480;-71
2023/03/31 04:35:51;;;;;;;21.67;6.10;;;9.40;99.90;;;;;;5092001;27;20039;-71
2023/03/31 04:38:23;;;;;;;18.23;5.70;;;9.50;99.90;;;;;;5090367;27;20043;-71
2023/03/31 04:40:50;;;;;;;25.15;7.07;;;9.50;99.90;;;;;;5132298;27;20079;-71
2023/03/31 04:43:17;;;;;;;18.10;6.32;;;9.50;99.90;;;;;;5126000;27;20492;-71
2023/03/31 04:45:44;;;;;;;19.13;6.47;;;9.50;99.90;;;;;;5122376;27;20050;-72
2023/03/31 04:48:09;;;;;;;22.83;6.93;;;9.60;99.90;;;;;;5131629;27;20062;-71
2023/03/31 04:50:36;;;;;;;26.48;7.15;;;9.50;99.90;;;;;;5117431;27;20038;-71
2023/03/31 04:53:02;;;;;;;15.10;6.82;;;9.40;99.90;;;;;;5128602;27;20039;-71
2023/03/31 04:55:28;;;;;;;22.50;7.38;;;9.50;99.90;;;;;;5129707;27;20526;-71
2023/03/31 04:57:53;;;;;;;22.58;7.97;;;9.50;99.90;;;;;;5123357;27;20111;-71
2023/03/31 05:00:20;;;;;;;22.67;7.70;;;9.50;99.90;;;;;;5122758;27;20046;-71
2023/03/31 05:02:45;;;;;;;22.63;8.48;;;9.40;99.90;;;;;;5114224;27;20031;-71
2023/03/31 05:05:11;;;;;;;21.15;8.45;;;9.50;99.90;;;;;;5116945;27;20506;-71
2023/03/31 05:07:38;;;;;;;19.48;8.35;;;9.40;99.90;;;;;;5127418;27;20040;-71
2023/03/31 05:10:04;;;;;;;21.55;8.80;;;9.50;99.90;;;;;;5118513;27;20552;-71
2023/03/31 05:12:34;;;;;;;21.05;8.43;;;9.40;99.90;;;;;;5126369;27;20488;-71
2023/03/31 05:15:00;;;;;;;19.63;8.70;;;9.40;99.90;;;;;;5121204;27;20051;-71
2023/03/31 05:17:26;;;;;;;24.92;9.20;;;9.40;99.90;;;;;;5122757;27;20114;-72
2023/03/31 05:19:52;;;;;;;29.27;9.95;;;9.40;99.90;;;;;;5129968;27;20055;-71
2023/03/31 05:22:19;;;;;;;24.73;9.05;;;9.40;99.90;;;;;;5122059;27;20395;-71
2023/03/31 05:24:45;;;;;;;23.03;9.43;;;9.60;99.90;;;;;;5115732;27;20039;-71
2023/03/31 05:27:12;;;;;;;23.40;9.38;;;9.40;99.90;;;;;;5127640;27;20038;-72
2023/03/31 05:29:37;;;;;;;25.13;9.55;;;9.40;99.90;;;;;;5122498;27;20054;-71
2023/03/31 05:32:03;;;;;;;22.33;9.13;;;9.50;99.90;;;;;;5128441;27;20051;-72
2023/03/31 05:34:29;;;;;;;27.48;9.98;;;9.50;99.90;;;;;;5118900;27;20042;-73
2023/03/31 05:36:55;;;;;;;20.40;9.27;;;9.50;99.90;;;;;;5127131;27;20126;-73
2023/03/31 05:39:20;;;;;;;31.02;9.52;;;9.50;99.90;;;;;;5112649;27;20559;-72
2023/03/31 05:41:46;;;;;;;26.00;9.23;;;9.50;99.90;;;;;;5119332;27;20165;-73
2023/03/31 05:44:12;;;;;;;21.65;8.52;;;9.50;99.90;;;;;;5123389;27;20035;-72
2023/03/31 05:46:37;;;;;;;28.88;8.60;;;9.50;99.90;;;;;;5126054;27;20032;-73
2023/03/31 05:49:03;;;;;;;18.02;7.72;;;9.50;99.90;;;;;;5129067;27;20122;-73
2023/03/31 05:51:29;;;;;;;21.80;7.95;;;9.50;99.90;;;;;;5125526;27;20042;-73
2023/03/31 05:53:55;;;;;;;24.35;7.55;;;9.50;99.90;;;;;;5116637;27;20063;-72
2023/03/31 05:56:21;;;;;;;25.63;8.35;;;9.50;99.90;;;;;;5117503;27;20518;-73
2023/03/31 05:58:46;;;;;;;22.48;7.40;;;9.60;99.90;;;;;;5126030;27;20476;-72
2023/03/31 06:01:18;;;;;;;23.63;7.82;;;9.60;99.90;;;;;;5125539;27;20055;-72
2023/03/31 06:03:45;;;;;;;18.88;6.80;;;9.60;99.90;;;;;;5095046;27;20047;-72
2023/03/31 06:06:15;;;;;;;23.42;7.35;;;9.60;99.90;;;;;;5119750;27;20039;-73
2023/03/31 06:08:42;;;;;;;23.02;7.00;;;9.60;99.90;;;;;;5118403;27;20492;-73
2023/03/31 06:11:10;;;;;;;20.35;6.13;;;9.60;99.90;;;;;;5121078;27;20035;-73
2023/03/31 06:13:37;;;;;;;18.15;6.10;;;9.60;99.90;;;;;;5116223;27;20606;-74
2023/03/31 06:16:04;;;;;;;21.02;5.40;;;9.60;99.90;;;;;;5116490;27;20035;-73
2023/03/31 06:18:31;;;;;;;21.98;6.47;;;9.60;99.90;;;;;;5115340;27;20051;-72
2023/03/31 06:20:57;;;;;;;22.10;6.25;;;9.60;99.90;;;;;;5123034;27;20399;-73
2023/03/31 06:23:24;;;;;;;21.77;6.68;;;9.60;99.90;;;;;;5102980;27;20476;-72
2023/03/31 06:25:50;;;;;;;20.65;6.40;;;9.60;99.90;;;;;;5123155;27;20045;-72
2023/03/31 06:28:16;;;;;;;18.92;6.25;;;9.60;99.90;;;;;;5116615;27;20040;-72
2023/03/31 06:30:42;;;;;;;16.40;6.72;;;9.60;99.90;;;;;;5106617;27;20081;-72
2023/03/31 06:33:08;;;;;;;17.10;5.38;;;9.60;99.90;;;;;;5107303;27;20376;-70
2023/03/31 06:35:40;;;;;;;16.77;6.32;;;9.60;99.90;;;;;;5128947;27;20430;-72
2023/03/31 06:38:06;;;;;;;14.00;5.72;;;9.60;99.90;;;;;;5110599;27;20476;-72
2023/03/31 06:40:32;;;;;;;19.33;6.50;;;9.70;99.90;;;;;;5105830;28;20376;-73
2023/03/31 06:42:58;;;;;;;21.58;6.78;;;9.70;99.90;;;;;;5094845;28;20047;-73
2023/03/31 06:45:24;;;;;;;20.95;6.88;;;9.70;99.90;;;;;;5116462;27;20036;-74
2023/03/31 06:47:49;;;;;;;21.95;6.57;;;9.70;99.90;;;;;;5132324;27;20097;-74
2023/03/31 06:50:15;;;;;;;16.90;5.93;;;9.80;99.90;;;;;;5114490;28;20333;-74
2023/03/31 06:52:41;;;;;;;14.52;5.15;;;9.70;99.90;;;;;;5121036;27;20108;-73
2023/03/31 06:55:08;;;;;;;16.05;6.35;;;9.80;99.90;;;;;;5120346;27;20054;-74
2023/03/31 06:57:34;;;;;;;12.52;5.82;;;9.70;99.90;;;;;;5125870;27;20130;-73
2023/03/31 07:00:00;;;;;;;13.93;5.85;;;9.70;99.90;;;;;;5132247;27;20119;-74
2023/03/31 07:02:25;;;;;;;17.65;6.10;;;9.80;99.90;;;;;;5133950;27;20103;-73
2023/03/31 07:04:51;;;;;;;17.30;5.97;;;9.80;99.90;;;;;;5119962;27;20441;-74
2023/03/31 07:07:17;;;;;;;11.35;5.63;;;9.80;99.90;;;;;;5108262;27;20042;-74
2023/03/31 07:09:42;;;;;;;15.82;5.32;;;9.70;99.90;;;;;;5101387;27;20099;-73
2023/03/31 07:12:09;;;;;;;18.08;5.65;;;9.80;99.90;;;;;;5127841;27;20400;-73
2023/03/31 07:14:35;;;;;;;16.65;6.63;;;9.70;99.90;;;;;;5119920;27;20417;-71
2023/03/31 07:17:01;;;;;;;14.15;5.53;;;9.70;99.90;;;;;;5124472;27;20096;-73
2023/03/31 07:19:27;;;;;;;15.32;5.75;;;9.70;99.90;;;;;;5120192;27;20040;-73
2023/03/31 07:21:53;;;;;;;16.60;6.38;;;9.70;99.90;;;;;;5121934;27;20483;-73
2023/03/31 07:24:19;;;;;;;16.65;6.38;;;9.80;99.90;;;;;;5118795;27;20128;-73
2023/03/31 07:26:44;;;;;;;17.60;6.07;;;9.70;99.90;;;;;;5126873;27;20510;-72
2023/03/31 07:29:10;;;;;;;14.35;7.28;;;9.80;99.90;;;;;;5114290;28;20071;-72
2023/03/31 07:31:36;;;;;;;20.52;8.18;;;9.80;99.90;;;;;;5120523;27;20086;-72
2023/03/31 07:34:03;;;;;;;24.13;8.60;;;9.80;99.90;;;;;;5121599;27;20036;-74
2023/03/31 07:36:30;;;;;;;27.10;9.27;;;9.80;99.90;;;;;;5114260;28;20047;-71
2023/03/31 07:38:56;;;;;;;24.08;9.30;;;9.80;99.90;;;;;;5134099;27;20126;-73
2023/03/31 07:41:22;;;;;;;21.25;9.35;;;9.90;99.90;;;;;;5118929;28;20106;-72
2023/03/31 07:43:49;;;;;;;24.42;8.32;;;9.80;99.90;;;;;;5113066;28;20511;-73
2023/03/31 07:46:22;;;;;;;17.70;7.03;;;9.90;99.90;;;;;;5123601;28;20038;-73
2023/03/31 07:48:49;;;;;;;16.92;6.93;;;9.90;99.90;;;;;;5101442;28;20078;-74
2023/03/31 07:51:17;;;;;;;16.67;6.35;;;9.90;99.90;;;;;;5118931;27;20510;-72
2023/03/31 07:53:43;;;;;;;16.75;6.50;;;9.90;99.90;;;;;;5111274;28;20047;-72
2023/03/31 07:56:08;;;;;;;13.63;5.85;;;9.90;99.90;;;;;;5128320;28;20380;-72
2023/03/31 07:58:34;;;;;;;14.80;5.68;;;10.00;99.90;;;;;;5130872;27;20027;-72
2023/03/31 08:01:00;;;;;;;14.82;5.28;;;10.00;99.90;;;;;;5124879;28;20429;-74
2023/03/31 08:03:26;;;;;;;14.25;5.22;;;10.00;99.90;;;;;;5125171;28;20043;-71
2023/03/31 08:05:52;;;;;;;22.25;6.97;;;10.10;99.90;;;;;;5128584;28;20365;-73
2023/03/31 08:08:19;;;;;;;11.98;5.38;;;10.00;99.90;;;;;;5127975;27;20080;-73
2023/03/31 08:10:46;;;;;;;17.23;5.55;;;10.00;99.90;;;;;;5116374;27;20504;-71
2023/03/31 08:13:12;;;;;;;11.77;5.10;;;9.90;99.90;;;;;;5138215;27;20400;-73
2023/03/31 08:15:37;;;;;;;13.27;5.47;;;10.00;99.90;;;;;;5136138;27;20038;-73
2023/03/31 08:18:04;;;;;;;12.18;5.75;;;10.00;99.90;;;;;;5136129;27;20046;-73
2023/03/31 08:20:30;;;;;;;15.43;6.43;;;9.90;99.90;;;;;;5136874;27;20043;-74
2023/03/31 08:22:55;;;;;;;16.63;6.03;;;10.00;99.90;;;;;;5123032;27;20432;-73
2023/03/31 08:25:22;;;;;;;15.23;5.60;;;9.90;99.90;;;;;;5122353;27;20462;-72
2023/03/31 08:27:49;;;;;;;15.93;6.13;;;10.00;99.90;;;;;;5137267;27;20513;-73
2023/03/31 08:30:17;;;;;;;11.20;4.88;;;9.90;99.90;;;;;;5126393;27;20047;-73
2023/03/31 08:32:43;;;;;;;14.15;4.88;;;9.90;99.90;;;;;;5118506;28;20132;-74
2023/03/31 08:35:09;;;;;;;12.95;5.15;;;9.90;99.90;;;;;;5126932;27;20074;-73
2023/03/31 08:37:38;;;;;;;10.32;4.93;;;9.90;99.90;;;;;;5132013;27;20050;-71
2023/03/31 08:40:08;;;;;;;11.55;5.20;;;9.90;99.90;;;;;;5136723;27;20399;-72
2023/03/31 08:42:48;;;;;;;15.57;4.82;;;9.90;99.90;;;;;;5123553;27;20043;-72
2023/03/31 08:45:19;;;;;;;9.13;4.50;;;9.90;99.90;;;;;;5124643;27;20043;-72
2023/03/31 08:47:47;;;;;;;11.05;4.55;;;9.90;99.90;;;;;;5133717;27;20056;-71
2023/03/31 08:50:17;;;;;;;14.48;5.75;;;9.90;99.90;;;;;;5132458;27;20046;-72
2023/03/31 08:52:51;;;;;;;15.30;5.43;;;9.90;99.90;;;;;;5123728;27;20443;-72
2023/03/31 08:55:24;;;;;;;13.43;4.88;;;9.90;99.90;;;;;;5124090;27;20468;-72
2023/03/31 08:58:23;;;;;;;12.93;5.03;;;9.90;99.90;;;;;;5121158;27;20039;-71
2023/03/31 09:00:58;;;;;;;11.25;4.30;;;10.00;99.90;;;;;;5122211;27;20407;-71
2023/03/31 09:03:57;;;;;;;16.35;4.65;;;10.00;99.90;;;;;;5106668;27;20039;-71
2023/03/31 09:06:38;;;;;;;18.52;5.20;;;10.00;99.90;;;;;;5053786;27;20642;-71
2023/03/31 09:09:14;;;;;;;11.05;5.35;;;10.10;99.90;;;;;;5105549;28;20058;-72
2023/03/31 09:11:53;;;;;;;11.93;4.85;;;10.10;99.90;;;;;;5122170;27;20042;-71
2023/03/31 09:14:54;;;;;;;10.70;4.53;;;10.10;99.90;;;;;;5137030;27;20089;-72
2023/03/31 09:17:30;;;;;;;19.20;5.47;;;10.20;99.90;;;;;;5073117;27;20050;-72
2023/03/31 09:20:13;;;;;;;17.85;5.93;;;10.20;99.90;;;;;;5132494;27;20047;-72
2023/03/31 09:23:23;;;;;;;13.48;5.88;;;10.20;99.90;;;;;;5115868;27;20066;-72
2023/03/31 09:25:50;;;;;;;16.08;6.10;;;10.30;99.90;;;;;;5136341;27;20543;-71
2023/03/31 09:28:20;;;;;;;14.38;6.07;;;10.40;99.90;;;;;;5099319;27;20047;-71
2023/03/31 09:30:50;;;;;;;18.02;5.60;;;10.40;99.90;;;;;;5128256;27;20039;-71
2023/03/31 09:33:30;;;;;;;16.77;5.63;;;10.40;99.90;;;;;;5084550;27;20040;-72
2023/03/31 09:36:00;;;;;;;15.52;6.13;;;10.40;99.90;;;;;;5115822;27;20044;-72
2023/03/31 09:38:30;;;;;;;13.70;5.53;;;10.50;99.90;;;;;;5125433;27;20063;-71
2023/03/31 09:41:01;;;;;;;20.38;6.40;;;10.50;99.90;;;;;;5119642;27;20090;-72
2023/03/31 09:43:28;;;;;;;14.40;5.90;;;10.50;99.90;;;;;;5124967;27;20039;-71
2023/03/31 09:45:55;;;;;;;18.98;5.85;;;10.60;99.90;;;;;;5119515;27;20503;-71
2023/03/31 09:48:33;;;;;;;16.10;5.85;;;10.70;99.90;;;;;;5114652;27;20602;-72
2023/03/31 09:51:01;;;;;;;19.05;5.88;;;10.70;99.90;;;;;;5119560;27;20099;-72
2023/03/31 09:53:38;;;;;;;13.35;5.80;;;10.80;99.90;;;;;;5151263;27;20051;-72
2023/03/31 09:56:13;;;;;;;17.33;6.15;;;10.80;99.90;;;;;;5130632;27;20074;-72
2023/03/31 09:58:44;;;;;;;13.07;5.68;;;11.00;99.90;;;;;;5129099;27;20049;-72
2023/03/31 10:01:12;;;;;;;19.77;5.72;;;11.10;99.90;;;;;;5101147;27;20131;-72
2023/03/31 10:03:51;;;;;;;15.88;5.93;;;11.10;99.90;;;;;;5111020;27;20035;-71
2023/03/31 10:06:17;;;;;;;14.10;5.43;;;11.20;99.90;;;;;;5127668;27;20039;-73
2023/03/31 10:08:56;;;;;;;12.82;5.30;;;11.40;99.90;;;;;;5125654;27;20042;-73
2023/03/31 10:11:23;;;;;;;17.35;6.03;;;11.40;99.90;;;;;;5125108;27;20051;-73
2023/03/31 10:13:51;;;;;;;18.17;6.32;;;11.60;99.90;;;;;;5121387;27;20032;-73
2023/03/31 10:16:28;;;;;;;12.32;4.45;;;11.70;99.90;;;;;;5122196;27;20846;-74
2023/03/31 10:18:54;;;;;;;14.77;5.00;;;11.80;99.90;;;;;;5121766;27;20043;-74
2023/03/31 10:21:25;;;;;;;12.63;4.95;;;11.80;99.90;;;;;;5125965;27;20382;-74
2023/03/31 10:23:52;;;;;;;10.20;5.18;;;11.90;99.90;;;;;;5121323;27;20089;-75
2023/03/31 10:26:25;;;;;;;12.38;4.75;;;12.00;99.90;;;;;;5112486;27;20035;-74
2023/03/31 10:28:51;;;;;;;10.95;4.00;;;12.00;99.90;;;;;;5132112;27;20035;-74
2023/03/31 10:31:18;;;;;;;12.30;4.35;;;12.00;99.90;;;;;;5129307;27;20063;-74
2023/03/31 10:33:47;;;;;;;13.82;4.43;;;12.00;99.90;;;;;;5113588;28;20036;-74
2023/03/31 10:36:22;;;;;;;14.98;3.70;;;12.00;99.90;;;;;;5113217;27;20134;-74
2023/03/31 10:38:50;;;;;;;9.10;4.20;;;11.90;99.90;;;;;;5100052;28;20039;-75
2023/03/31 10:41:21;;;;;;;13.88;4.50;;;11.80;99.90;;;;;;5123842;27;20373;-75
2023/03/31 10:43:50;;;;;;;10.00;3.83;;;11.80;99.90;;;;;;5120408;27;20418;-74
2023/03/31 10:46:16;;;;;;;9.80;3.75;;;11.70;99.90;;;;;;5113165;27;20476;-75
2023/03/31 10:48:43;;;;;;;9.93;3.65;;;11.60;99.90;;;;;;5130487;27;20050;-74
2023/03/31 10:51:16;;;;;;;12.25;4.03;;;11.50;99.90;;;;;;5131486;27;20395;-74
2023/03/31 10:53:45;;;;;;;9.52;4.30;;;11.50;99.90;;;;;;5113550;27;20060;-75
2023/03/31 10:56:26;;;;;;;10.52;4.10;;;11.60;99.90;;;;;;5118864;27;20051;-74
2023/03/31 10:59:11;;;;;;;8.82;4.30;;;11.60;99.90;;;;;;5122775;27;20043;-74
2023/03/31 11:02:00;;;;;;;10.18;3.85;;;11.80;99.90;;;;;;5112827;28;20122;-74
2023/03/31 11:04:50;;;;;;;11.57;4.43;;;11.90;99.90;;;;;;5120993;27;20095;-75
2023/03/31 11:07:28;;;;;;;9.90;4.07;;;11.90;99.90;;;;;;5119373;27;20043;-75
2023/03/31 11:10:13;;;;;;;9.07;4.15;;;12.10;99.90;;;;;;5122463;27;20123;-75
2023/03/31 11:12:50;;;;;;;9.57;4.10;;;12.10;99.90;;;;;;5119816;27;20051;-75
2023/03/31 11:15:33;;;;;;;11.65;3.88;;;12.20;99.90;;;;;;5119354;27;20036;-75
2023/03/31 11:18:10;;;;;;;8.35;3.28;;;12.20;99.90;;;;;;5123343;27;20043;-75
2023/03/31 11:20:50;;;;;;;11.13;4.20;;;12.30;99.90;;;;;;5123994;27;20075;-74
2023/03/31 11:23:33;;;;;;;7.35;3.38;;;12.50;99.90;;;;;;5094617;28;20043;-75
2023/03/31 11:26:06;;;;;;;8.45;4.13;;;12.50;99.90;;;;;;5115415;27;20123;-75
2023/03/31 11:28:47;;;;;;;11.32;4.03;;;12.60;99.90;;;;;;5112970;28;20492;-75
2023/03/31 11:31:31;;;;;;;10.75;3.92;;;12.80;99.90;;;;;;5112594;28;20043;-75
2023/03/31 11:34:15;;;;;;;15.15;4.07;;;13.00;99.90;;;;;;5112556;27;20046;-75
2023/03/31 11:36:48;;;;;;;13.98;4.32;;;13.20;99.90;;;;;;5114426;28;20585;-75
2023/03/31 11:39:33;;;;;;;15.43;4.65;;;13.50;99.90;;;;;;5121029;27;20122;-76
2023/03/31 11:42:14;;;;;;;15.50;4.28;;;13.80;99.90;;;;;;5084696;28;20047;-76
2023/03/31 11:44:51;;;;;;;8.75;3.13;;;14.00;99.90;;;;;;5112504;28;20087;-76
2023/03/31 11:47:30;;;;;;;10.10;3.45;;;14.20;99.90;;;;;;5113031;28;20054;-76
2023/03/31 11:50:24;;;;;;;9.77;3.28;;;14.40;99.90;;;;;;5113148;28;20112;-76
2023/03/31 11:53:10;;;;;;;10.98;3.20;;;14.50;99.90;;;;;;5109714;28;20040;-75
2023/03/31 11:55:37;;;;;;;8.25;2.75;;;14.50;99.90;;;;;;5093895;28;20049;-76
2023/03/31 11:58:09;;;;;;;9.63;3.55;;;14.40;99.90;;;;;;5116931;27;20089;-76
2023/03/31 12:00:43;;;;;;;8.43;3.10;;;14.40;99.90;;;;;;5133157;27;20095;-76
2023/03/31 12:03:24;;;;;;;10.55;3.00;;;14.40;99.90;;;;;;5132210;27;20066;-76
2023/03/31 12:06:01;;;;;;;10.82;2.78;;;14.30;99.90;;;;;;5138569;27;20050;-76
2023/03/31 12:09:04;;;;;;;14.52;3.17;;;14.20;99.90;;;;;;5127749;28;20051;-76
2023/03/31 12:11:53;;;;;;;10.13;2.72;;;13.90;99.90;;;;;;5126579;28;20095;-76
2023/03/31 12:15:01;;;;;;;25.98;4.80;;;13.60;99.90;;;;;;5117607;28;20040;-75
2023/03/31 12:17:28;;;;;;;11.07;3.13;;;13.30;99.90;;;;;;5084483;28;20055;-74
2023/03/31 12:20:09;;;;;;;7.47;2.70;;;13.00;99.90;;;;;;5117218;27;20070;-73
2023/03/31 12:22:44;;;;;;;10.50;3.00;;;12.90;99.90;;;;;;5114793;27;20032;-73
2023/03/31 12:25:15;;;;;;;10.82;3.13;;;12.80;99.90;;;;;;5131713;27;20027;-73
2023/03/31 12:27:42;;;;;;;19.98;3.95;;;12.70;99.90;;;;;;5120737;27;20038;-73
2023/03/31 12:30:14;;;;;;;11.15;3.58;;;12.60;99.90;;;;;;5117873;27;20035;-73
2023/03/31 12:32:53;;;;;;;15.27;3.97;;;12.50;99.90;;;;;;5119316;28;20373;-74
2023/03/31 12:35:40;;;;;;;22.98;5.25;;;12.40;99.90;;;;;;5105342;28;20092;-74
2023/03/31 12:38:09;;;;;;;13.52;4.35;;;12.40;99.90;;;;;;5102800;28;20051;-74
2023/03/31 12:40:49;;;;;;;13.65;4.22;;;12.30;99.90;;;;;;5117157;28;20042;-74
2023/03/31 12:43:29;;;;;;;11.93;4.00;;;12.30;99.90;;;;;;5090700;28;20051;-74
2023/03/31 12:46:16;;;;;;;13.57;4.32;;;12.30;99.90;;;;;;5117958;28;20238;-74
2023/03/31 12:48:55;;;;;;;15.52;4.13;;;12.40;99.90;;;;;;5108032;28;20055;-74
2023/03/31 12:51:39;;;;;;;15.70;3.80;;;12.50;99.90;;;;;;5095527;28;20073;-74
2023/03/31 12:54:33;;;;;;;13.40;3.92;;;12.70;99.90;;;;;;5115476;28;20062;-74
2023/03/31 12:56:59;;;;;;;13.43;4.95;;;12.90;99.90;;;;;;5117081;27;20378;-74
2023/03/31 12:59:36;;;;;;;10.65;3.95;;;13.20;99.90;;;;;;5130742;27;20043;-73
2023/03/31 13:02:14;;;;;;;13.75;4.15;;;13.60;99.90;;;;;;5122590;27;20043;-74
2023/03/31 13:04:40;;;;;;;13.90;4.00;;;13.80;99.90;;;;;;5123346;27;20042;-74
2023/03/31 13:07:24;;;;;;;15.32;4.00;;;13.80;99.90;;;;;;5117933;27;20042;-73
2023/03/31 13:09:55;;;;;;;11.18;3.85;;;13.90;99.90;;;;;;5124837;27;20066;-74